createdAt,value
2019-01-29T00:02:08.040Z,98392.56
2019-01-29T00:04:34.237Z,98389.58
2019-01-29T00:07:00.414Z,98392.91
2019-01-29T00:09:26.741Z,98398.44
2019-01-29T00:11:52.988Z,98408.44
2019-01-29T00:14:19.297Z,98410.19
2019-01-29T00:16:45.520Z,98406.06
2019-01-29T00:19:11.813Z,98408.98
2019-01-29T00:21:37.991Z,98419.15
2019-01-29T00:24:04.205Z,98430.97
2019-01-29T00:26:30.490Z,98428.27
2019-01-29T00:28:56.674Z,98425.16
2019-01-29T00:31:23.032Z,98430.80
2019-01-29T00:33:49.206Z,98437.13
2019-01-29T00:36:15.379Z,98431.66
2019-01-29T00:38:41.977Z,98431.30
2019-01-29T00:41:08.156Z,98447.56
2019-01-29T00:43:34.348Z,98451.55
2019-01-29T00:46:00.563Z,98456.53
2019-01-29T00:48:26.851Z,98454.19
2019-01-29T00:50:53.057Z,98458.75
2019-01-29T00:53:19.292Z,98465.16
2019-01-29T00:55:45.573Z,98471.45
2019-01-29T00:58:11.867Z,98474.67
2019-01-29T01:00:38.074Z,98471.13
2019-01-29T01:03:04.252Z,98464.48
2019-01-29T01:05:30.821Z,98456.59
2019-01-29T01:07:57.051Z,98449.69
2019-01-29T01:10:23.224Z,98446.31
2019-01-29T01:12:49.404Z,98441.00
2019-01-29T01:15:16.106Z,98445.02
2019-01-29T01:17:42.364Z,98453.67
2019-01-29T01:20:12.029Z,98467.99
2019-01-29T01:22:38.231Z,98461.20
2019-01-29T01:25:06.388Z,98460.17
2019-01-29T01:27:32.540Z,98454.87
2019-01-29T01:29:58.723Z,98458.34
2019-01-29T01:32:24.888Z,98455.52
2019-01-29T01:34:51.049Z,98466.50
2019-01-29T01:37:17.230Z,98465.30
2019-01-29T01:39:43.384Z,98459.00
2019-01-29T01:42:09.543Z,98467.66
2019-01-29T01:44:35.753Z,98467.80
2019-01-29T01:47:01.911Z,98472.10
2019-01-29T01:49:28.170Z,98467.41
2019-01-29T01:51:54.363Z,98468.78
2019-01-29T01:54:20.512Z,98465.99
2019-01-29T01:56:46.771Z,98468.57
2019-01-29T01:59:12.978Z,98469.43
2019-01-29T02:01:39.232Z,98482.13
2019-01-29T02:04:05.406Z,98477.88
2019-01-29T02:06:31.603Z,98461.19
2019-01-29T02:08:57.757Z,98466.06
2019-01-29T02:11:23.922Z,98455.02
2019-01-29T02:13:50.106Z,98457.38
2019-01-29T02:16:16.404Z,98461.05
2019-01-29T02:18:42.580Z,98458.73
2019-01-29T02:21:08.760Z,98448.42
2019-01-29T02:23:35.017Z,98463.45
2019-01-29T02:26:01.173Z,98460.45
2019-01-29T02:28:27.389Z,98461.68
2019-01-29T02:30:53.552Z,98462.39
2019-01-29T02:33:19.711Z,98460.19
2019-01-29T02:35:45.896Z,98456.88
2019-01-29T02:38:12.069Z,98457.49
2019-01-29T02:40:38.235Z,98463.38
2019-01-29T02:43:04.540Z,98461.73
2019-01-29T02:45:30.711Z,98467.97
2019-01-29T02:47:56.878Z,98470.37
2019-01-29T02:50:23.171Z,98469.37
2019-01-29T02:52:49.433Z,98476.19
2019-01-29T02:55:15.600Z,98476.94
2019-01-29T02:57:41.788Z,98479.45
2019-01-29T03:00:11.652Z,98474.77
2019-01-29T03:02:37.816Z,98474.67
2019-01-29T03:05:06.820Z,98472.04
2019-01-29T03:07:33.080Z,98472.08
2019-01-29T03:09:59.345Z,98466.41
2019-01-29T03:12:25.540Z,98462.33
2019-01-29T03:14:51.698Z,98457.42
2019-01-29T03:17:17.910Z,98460.89
2019-01-29T03:19:44.092Z,98464.05
2019-01-29T03:22:10.261Z,98462.23
2019-01-29T03:24:36.410Z,98463.73
2019-01-29T03:27:02.593Z,98460.82
2019-01-29T03:29:28.758Z,98459.20
2019-01-29T03:31:54.919Z,98465.91
2019-01-29T03:34:21.119Z,98474.39
2019-01-29T03:36:47.284Z,98482.75
2019-01-29T03:39:13.448Z,98470.34
2019-01-29T03:41:39.646Z,98477.28
2019-01-29T03:44:05.790Z,98483.17
2019-01-29T03:46:32.048Z,98481.56
2019-01-29T03:48:58.237Z,98488.64
2019-01-29T03:51:24.390Z,98487.78
2019-01-29T03:53:50.714Z,98479.77
2019-01-29T03:56:16.946Z,98487.15
2019-01-29T03:58:43.103Z,98483.74
2019-01-29T04:01:09.267Z,98485.08
2019-01-29T04:03:35.577Z,98480.69
2019-01-29T04:06:02.205Z,98488.73
2019-01-29T04:08:28.464Z,98499.18
2019-01-29T04:10:54.649Z,98491.30
2019-01-29T04:13:20.810Z,98500.86
2019-01-29T04:15:47.063Z,98504.67
2019-01-29T04:18:13.420Z,98509.63
2019-01-29T04:20:39.681Z,98508.98
2019-01-29T04:23:05.846Z,98495.30
2019-01-29T04:25:32.028Z,98490.89
2019-01-29T04:27:58.293Z,98487.02
2019-01-29T04:30:24.448Z,98489.27
2019-01-29T04:32:50.748Z,98477.94
2019-01-29T04:35:17.008Z,98480.25
2019-01-29T04:37:43.270Z,98484.34
2019-01-29T04:40:12.067Z,98490.05
2019-01-29T04:42:38.226Z,98476.83
2019-01-29T04:45:07.503Z,98479.74
2019-01-29T04:47:33.727Z,98487.19
2019-01-29T04:49:59.862Z,98487.66
2019-01-29T04:52:26.026Z,98489.03
2019-01-29T04:54:52.327Z,98497.70
2019-01-29T04:57:18.600Z,98496.62
2019-01-29T04:59:44.775Z,98493.52
2019-01-29T05:02:10.943Z,98486.53
2019-01-29T05:04:37.211Z,98488.47
2019-01-29T05:07:03.370Z,98500.51
2019-01-29T05:09:29.560Z,98504.00
2019-01-29T05:11:55.707Z,98509.33
2019-01-29T05:14:21.874Z,98510.33
2019-01-29T05:16:48.068Z,98503.42
2019-01-29T05:19:14.287Z,98497.25
2019-01-29T05:21:40.446Z,98502.70
2019-01-29T05:24:07.346Z,98500.27
2019-01-29T05:26:33.698Z,98509.96
2019-01-29T05:28:59.856Z,98512.95
2019-01-29T05:31:26.040Z,98504.33
2019-01-29T05:33:52.199Z,98503.00
2019-01-29T05:36:19.838Z,98501.78
2019-01-29T05:38:46.143Z,98494.53
2019-01-29T05:41:12.313Z,98497.03
2019-01-29T05:43:38.576Z,98505.55
2019-01-29T05:46:04.775Z,98501.06
2019-01-29T05:48:30.937Z,98517.31
2019-01-29T05:50:57.204Z,98508.88
2019-01-29T05:53:23.404Z,98500.14
2019-01-29T05:55:49.561Z,98496.69
2019-01-29T05:58:15.722Z,98508.41
2019-01-29T06:00:42.012Z,98492.77
2019-01-29T06:03:08.274Z,98500.85
2019-01-29T06:05:34.539Z,98508.28
2019-01-29T06:08:00.739Z,98490.58
2019-01-29T06:10:26.903Z,98496.83
2019-01-29T06:12:53.171Z,98504.09
2019-01-29T06:15:20.956Z,98495.55
2019-01-29T06:17:47.122Z,98492.38
2019-01-29T06:20:19.050Z,98493.47
2019-01-29T06:22:45.348Z,98491.51
2019-01-29T06:25:11.608Z,98490.84
2019-01-29T06:27:37.869Z,98492.60
2019-01-29T06:30:07.664Z,98498.95
2019-01-29T06:32:33.829Z,98481.45
2019-01-29T06:34:59.998Z,98479.95
2019-01-29T06:37:26.345Z,98471.85
2019-01-29T06:39:52.606Z,98468.84
2019-01-29T06:42:18.775Z,98478.21
2019-01-29T06:44:44.955Z,98482.23
2019-01-29T06:47:11.122Z,98475.70
2019-01-29T06:49:37.390Z,98487.58
2019-01-29T06:52:03.888Z,98489.63
2019-01-29T06:54:34.217Z,98495.06
2019-01-29T06:56:58.323Z,98496.33
2019-01-29T06:59:24.527Z,98490.47
2019-01-29T07:01:50.681Z,98486.95
2019-01-29T07:04:16.958Z,98479.81
2019-01-29T07:06:43.578Z,98478.73
2019-01-29T07:09:09.846Z,98481.92
2019-01-29T07:11:36.007Z,98481.20
2019-01-29T07:14:02.209Z,98472.05
2019-01-29T07:16:30.271Z,98476.06
2019-01-29T07:18:58.336Z,98479.06
2019-01-29T07:21:25.438Z,98481.50
2019-01-29T07:23:51.711Z,98490.73
2019-01-29T07:26:17.969Z,98490.88
2019-01-29T07:28:44.298Z,98490.84
2019-01-29T07:31:10.567Z,98493.45
2019-01-29T07:33:36.743Z,98497.84
2019-01-29T07:36:03.036Z,98499.44
2019-01-29T07:38:29.300Z,98501.43
2019-01-29T07:40:55.583Z,98505.20
2019-01-29T07:43:21.881Z,98505.22
2019-01-29T07:45:48.043Z,98502.22
2019-01-29T07:48:14.906Z,98513.84
2019-01-29T07:50:41.098Z,98517.27
2019-01-29T07:53:07.265Z,98512.31
2019-01-29T07:55:33.540Z,98522.45
2019-01-29T07:57:59.858Z,98523.21
2019-01-29T08:00:26.109Z,98522.56
2019-01-29T08:02:52.273Z,98521.56
2019-01-29T08:05:20.588Z,98532.84
2019-01-29T08:07:46.610Z,98531.84
2019-01-29T08:10:14.950Z,98534.91
2019-01-29T08:12:41.145Z,98540.12
2019-01-29T08:15:18.557Z,98539.48
2019-01-29T08:17:44.758Z,98532.23
2019-01-29T08:20:12.629Z,98538.08
2019-01-29T08:22:38.919Z,98544.28
2019-01-29T08:25:08.712Z,98552.91
2019-01-29T08:27:34.873Z,98550.78
2019-01-29T08:30:01.148Z,98556.83
2019-01-29T08:32:27.460Z,98559.39
2019-01-29T08:34:54.124Z,98561.91
2019-01-29T08:37:20.384Z,98561.11
2019-01-29T08:39:46.740Z,98564.00
2019-01-29T08:42:12.997Z,98562.98
2019-01-29T08:44:39.652Z,98559.36
2019-01-29T08:47:05.962Z,98559.13
2019-01-29T08:49:32.117Z,98557.23
2019-01-29T08:51:58.280Z,98559.75
2019-01-29T08:54:24.571Z,98577.30
2019-01-29T08:56:50.734Z,98567.92
2019-01-29T08:59:16.887Z,98584.09
2019-01-29T09:01:43.085Z,98585.27
2019-01-29T09:04:09.348Z,98590.69
2019-01-29T09:06:37.433Z,98587.27
2019-01-29T09:09:07.737Z,98594.53
2019-01-29T09:11:33.917Z,98582.94
2019-01-29T09:14:00.172Z,98591.72
2019-01-29T09:16:26.484Z,98601.30
2019-01-29T09:18:52.631Z,98594.66
2019-01-29T09:21:18.804Z,98579.40
2019-01-29T09:23:45.009Z,98578.33
2019-01-29T09:26:11.270Z,98572.38
2019-01-29T09:28:37.425Z,98566.89
2019-01-29T09:31:05.420Z,98568.92
2019-01-29T09:33:31.581Z,98567.94
2019-01-29T09:35:57.913Z,98572.04
2019-01-29T09:38:24.067Z,98569.21
2019-01-29T09:40:52.072Z,98567.53
2019-01-29T09:43:18.265Z,98570.32
2019-01-29T09:45:46.824Z,98563.72
2019-01-29T09:48:12.991Z,98566.80
2019-01-29T09:50:39.160Z,98564.27
2019-01-29T09:53:05.460Z,98569.19
2019-01-29T09:55:31.927Z,98572.81
2019-01-29T09:57:58.187Z,98569.61
2019-01-29T10:00:27.088Z,98557.00
2019-01-29T10:02:53.390Z,98584.04
2019-01-29T10:05:19.679Z,98562.08
2019-01-29T10:07:46.114Z,98551.16
2019-01-29T10:10:13.019Z,98538.69
2019-01-29T10:12:39.201Z,98532.91
2019-01-29T10:15:11.845Z,98522.84
2019-01-29T10:17:38.491Z,98529.00
2019-01-29T10:20:06.959Z,98525.91
2019-01-29T10:22:33.257Z,98536.09
2019-01-29T10:24:59.459Z,98538.88
2019-01-29T10:27:25.763Z,98546.44
2019-01-29T10:29:53.908Z,98541.88
2019-01-29T10:32:20.209Z,98552.52
2019-01-29T10:34:46.366Z,98550.81
2019-01-29T10:37:12.660Z,98541.28
2019-01-29T10:39:38.945Z,98543.23
2019-01-29T10:42:05.990Z,98543.77
2019-01-29T10:44:32.509Z,98543.66
2019-01-29T10:46:58.769Z,98540.17
2019-01-29T10:49:24.929Z,98520.79
2019-01-29T10:51:51.261Z,98526.86
2019-01-29T10:54:17.566Z,98526.59
2019-01-29T10:56:43.836Z,98547.50
2019-01-29T10:59:10.137Z,98533.80
2019-01-29T11:01:36.407Z,98533.77
2019-01-29T11:04:03.171Z,98530.41
2019-01-29T11:06:29.375Z,98522.26
2019-01-29T11:08:55.540Z,98533.97
2019-01-29T11:11:21.691Z,98545.55
2019-01-29T11:13:47.887Z,98555.00
2019-01-29T11:16:14.548Z,98543.63
2019-01-29T11:18:40.807Z,98553.75
2019-01-29T11:21:07.265Z,98555.86
2019-01-29T11:23:33.519Z,98549.80
2019-01-29T11:25:59.878Z,98553.39
2019-01-29T11:28:26.187Z,98558.06
2019-01-29T11:30:52.507Z,98550.84
2019-01-29T11:33:18.640Z,98550.97
2019-01-29T11:35:44.829Z,98559.63
2019-01-29T11:38:11.122Z,98561.69
2019-01-29T11:40:37.277Z,98552.34
2019-01-29T11:43:04.210Z,98557.98
2019-01-29T11:45:33.571Z,98556.27
2019-01-29T11:47:59.741Z,98558.77
2019-01-29T11:50:25.956Z,98556.01
2019-01-29T11:52:52.109Z,98554.22
2019-01-29T11:55:18.303Z,98557.19
2019-01-29T11:57:44.499Z,98552.80
2019-01-29T12:00:15.975Z,98546.61
2019-01-29T12:02:42.144Z,98542.86
2019-01-29T12:05:08.538Z,98543.47
2019-01-29T12:07:35.110Z,98554.71
2019-01-29T12:10:01.275Z,98557.61
2019-01-29T12:12:27.584Z,98554.52
2019-01-29T12:14:53.859Z,98557.38
2019-01-29T12:17:20.025Z,98556.33
2019-01-29T12:19:46.327Z,98562.06
2019-01-29T12:22:12.488Z,98552.28
2019-01-29T12:24:38.664Z,98542.44
2019-01-29T12:27:05.020Z,98554.13
2019-01-29T12:29:31.293Z,98545.84
2019-01-29T12:31:57.459Z,98552.23
2019-01-29T12:34:23.655Z,98546.80
2019-01-29T12:36:50.205Z,98555.69
2019-01-29T12:39:16.465Z,98543.11
2019-01-29T12:41:42.658Z,98545.18
2019-01-29T12:44:08.836Z,98542.44
2019-01-29T12:46:35.090Z,98547.59
2019-01-29T12:49:03.368Z,98559.24
2019-01-29T12:51:31.462Z,98557.14
2019-01-29T12:53:57.769Z,98559.09
2019-01-29T12:56:24.032Z,98575.70
2019-01-29T12:58:50.196Z,98573.38
2019-01-29T13:01:16.465Z,98564.00
2019-01-29T13:03:42.765Z,98583.14
2019-01-29T13:06:09.029Z,98575.80
2019-01-29T13:08:35.707Z,98581.59
2019-01-29T13:11:02.110Z,98577.91
2019-01-29T13:13:28.283Z,98570.55
2019-01-29T13:15:54.557Z,98570.53
2019-01-29T13:18:20.984Z,98568.02
2019-01-29T13:20:47.259Z,98585.47
2019-01-29T13:23:13.521Z,98577.59
2019-01-29T13:25:39.827Z,98581.76
2019-01-29T13:28:06.053Z,98579.34
2019-01-29T13:30:34.231Z,98586.41
2019-01-29T13:33:00.694Z,98588.81
2019-01-29T13:35:30.557Z,98583.33
2019-01-29T13:37:56.713Z,98576.25
2019-01-29T13:40:23.028Z,98582.27
2019-01-29T13:42:49.340Z,98575.61
2019-01-29T13:45:16.295Z,98566.25
2019-01-29T13:47:42.488Z,98570.31
2019-01-29T13:50:12.403Z,98570.98
2019-01-29T13:52:38.586Z,98574.95
2019-01-29T13:55:08.489Z,98581.26
2019-01-29T13:57:34.754Z,98576.34
2019-01-29T14:00:01.025Z,98576.80
2019-01-29T14:02:27.239Z,98579.88
2019-01-29T14:04:53.515Z,98587.83
2019-01-29T14:07:19.700Z,98589.23
2019-01-29T14:09:45.983Z,98590.25
2019-01-29T14:12:12.266Z,98597.61
2019-01-29T14:14:38.923Z,98593.77
2019-01-29T14:17:05.224Z,98591.40
2019-01-29T14:19:31.399Z,98589.33
2019-01-29T14:21:57.671Z,98592.34
2019-01-29T14:24:23.977Z,98588.09
2019-01-29T14:26:50.140Z,98590.16
2019-01-29T14:29:16.301Z,98588.99
2019-01-29T14:31:42.606Z,98597.30
2019-01-29T14:34:08.772Z,98601.91
2019-01-29T14:36:34.935Z,98595.16
2019-01-29T14:39:16.766Z,98594.42
2019-01-29T14:41:43.030Z,98589.83
2019-01-29T14:44:10.395Z,98584.59
2019-01-29T14:46:36.792Z,98594.75
2019-01-29T14:49:03.151Z,98598.06
2019-01-29T14:51:29.418Z,98608.24
2019-01-29T14:53:55.726Z,98600.70
2019-01-29T14:56:22.264Z,98600.81
2019-01-29T14:58:51.211Z,98605.38
2019-01-29T15:01:17.620Z,98602.59
2019-01-29T15:03:43.894Z,98605.11
2019-01-29T15:06:10.281Z,98597.45
2019-01-29T15:08:38.606Z,98602.64
2019-01-29T15:11:06.628Z,98603.31
2019-01-29T15:13:32.884Z,98602.86
2019-01-29T15:16:06.786Z,98608.35
2019-01-29T15:18:46.710Z,98612.28
2019-01-29T15:21:12.902Z,98604.66
2019-01-29T15:23:39.084Z,98606.42
2019-01-29T15:26:05.356Z,98600.08
2019-01-29T15:28:31.655Z,98604.84
2019-01-29T15:30:58.868Z,98611.03
2019-01-29T15:33:25.029Z,98609.20
2019-01-29T15:35:51.233Z,98613.18
2019-01-29T15:38:17.510Z,98611.35
2019-01-29T15:40:43.678Z,98623.05
2019-01-29T15:43:09.970Z,98621.15
2019-01-29T15:45:36.334Z,98616.87
2019-01-29T15:48:02.604Z,98613.02
2019-01-29T15:50:31.142Z,98603.66
2019-01-29T15:52:57.492Z,98614.41
2019-01-29T15:55:23.678Z,98621.52
2019-01-29T15:57:50.076Z,98622.31
2019-01-29T16:00:28.181Z,98626.27
2019-01-29T16:02:54.367Z,98632.53
2019-01-29T16:05:25.666Z,98618.82
2019-01-29T16:07:51.931Z,98621.55
2019-01-29T16:10:40.140Z,98605.14
2019-01-29T16:13:06.284Z,98611.73
2019-01-29T16:15:32.653Z,98611.09
2019-01-29T16:17:59.053Z,98611.39
2019-01-29T16:20:25.638Z,98605.21
2019-01-29T16:22:51.805Z,98610.52
2019-01-29T16:25:23.865Z,98612.03
2019-01-29T16:27:50.238Z,98618.89
2019-01-29T16:30:19.318Z,98622.59
2019-01-29T16:32:46.020Z,98617.61
2019-01-29T16:35:15.597Z,98618.06
2019-01-29T16:37:43.052Z,98626.61
2019-01-29T16:40:13.006Z,98627.86
2019-01-29T16:42:39.178Z,98630.59
2019-01-29T16:45:08.945Z,98635.79
2019-01-29T16:47:35.164Z,98646.28
2019-01-29T16:50:01.321Z,98637.92
2019-01-29T16:52:27.499Z,98638.28
2019-01-29T16:54:53.792Z,98636.55
2019-01-29T16:57:19.945Z,98631.26
2019-01-29T16:59:46.105Z,98620.36
2019-01-29T17:02:12.306Z,98631.89
2019-01-29T17:04:38.468Z,98629.39
2019-01-29T17:07:04.743Z,98630.15
2019-01-29T17:09:30.944Z,98631.38
2019-01-29T17:11:57.118Z,98636.02
2019-01-29T17:14:23.280Z,98622.40
2019-01-29T17:16:49.488Z,98616.86
2019-01-29T17:19:15.744Z,98620.75
2019-01-29T17:21:41.909Z,98624.73
2019-01-29T17:24:08.113Z,98622.27
2019-01-29T17:26:34.286Z,98625.12
2019-01-29T17:29:00.551Z,98621.28
2019-01-29T17:31:29.978Z,98627.44
2019-01-29T17:33:56.240Z,98627.88
2019-01-29T17:36:22.417Z,98632.78
2019-01-29T17:38:48.716Z,98630.91
2019-01-29T17:41:14.989Z,98623.03
2019-01-29T17:43:41.160Z,98623.80
2019-01-29T17:46:07.731Z,98624.35
2019-01-29T17:48:35.863Z,98632.83
2019-01-29T17:51:03.604Z,98629.16
2019-01-29T17:53:29.915Z,98632.66
2019-01-29T17:55:56.172Z,98637.81
2019-01-29T17:58:22.445Z,98643.75
2019-01-29T18:00:50.553Z,98634.16
2019-01-29T18:03:16.719Z,98649.14
2019-01-29T18:05:43.093Z,98638.88
2019-01-29T18:08:09.436Z,98648.20
2019-01-29T18:10:35.710Z,98641.03
2019-01-29T18:13:01.988Z,98649.20
2019-01-29T18:15:29.593Z,98641.14
2019-01-29T18:17:56.254Z,98646.53
2019-01-29T18:20:22.426Z,98642.39
2019-01-29T18:22:48.745Z,98638.58
2019-01-29T18:25:18.680Z,98642.81
2019-01-29T18:27:45.057Z,98645.28
2019-01-29T18:30:17.521Z,98645.27
2019-01-29T18:32:43.803Z,98640.50
2019-01-29T18:35:10.125Z,98635.16
2019-01-29T18:37:36.427Z,98631.42
2019-01-29T18:40:14.768Z,98630.61
2019-01-29T18:42:40.990Z,98626.32
2019-01-29T18:45:09.565Z,98626.07
2019-01-29T18:47:35.877Z,98628.74
2019-01-29T18:50:05.492Z,98628.60
2019-01-29T18:52:31.775Z,98624.73
2019-01-29T18:54:57.938Z,98632.33
2019-01-29T18:57:24.267Z,98625.50
2019-01-29T18:59:50.600Z,98628.16
2019-01-29T19:02:16.747Z,98620.28
2019-01-29T19:04:43.028Z,98623.16
2019-01-29T19:07:09.294Z,98620.80
2019-01-29T19:09:35.565Z,98618.66
2019-01-29T19:12:03.816Z,98619.50
2019-01-29T19:14:30.129Z,98619.11
2019-01-29T19:16:56.296Z,98611.98
2019-01-29T19:19:22.595Z,98614.27
2019-01-29T19:21:48.746Z,98606.81
2019-01-29T19:24:15.027Z,98601.11
2019-01-29T19:26:41.319Z,98601.19
2019-01-29T19:29:07.594Z,98597.05
2019-01-29T19:31:33.862Z,98586.07
2019-01-29T19:34:00.154Z,98590.63
2019-01-29T19:36:26.329Z,98593.19
2019-01-29T19:38:52.599Z,98589.38
2019-01-29T19:41:18.807Z,98585.50
2019-01-29T19:43:44.964Z,98583.92
2019-01-29T19:46:11.227Z,98577.05
2019-01-29T19:48:37.550Z,98577.68
2019-01-29T19:51:03.804Z,98588.80
2019-01-29T19:53:30.092Z,98576.47
2019-01-29T19:55:56.283Z,98572.92
2019-01-29T19:58:31.791Z,98570.73
2019-01-29T20:00:50.628Z,98563.22
2019-01-29T20:03:16.953Z,98561.86
2019-01-29T20:05:43.129Z,98571.48
2019-01-29T20:08:14.582Z,98565.22
2019-01-29T20:10:41.001Z,98573.46
2019-01-29T20:13:07.270Z,98552.36
2019-01-29T20:15:33.570Z,98558.89
2019-01-29T20:17:59.867Z,98543.61
2019-01-29T20:20:28.933Z,98541.47
2019-01-29T20:22:55.088Z,98533.78
2019-01-29T20:25:21.405Z,98532.53
2019-01-29T20:27:47.646Z,98535.05
2019-01-29T20:30:17.157Z,98536.58
2019-01-29T20:32:52.891Z,98536.32
2019-01-29T20:35:11.648Z,98537.19
2019-01-29T20:37:37.922Z,98529.72
2019-01-29T20:40:10.906Z,98528.44
2019-01-29T20:42:37.083Z,98532.20
2019-01-29T20:45:06.569Z,98522.85
2019-01-29T20:47:32.884Z,98520.42
2019-01-29T20:49:59.169Z,98514.84
2019-01-29T20:52:25.429Z,98508.08
2019-01-29T20:54:51.665Z,98505.24
2019-01-29T20:57:17.946Z,98501.83
2019-01-29T20:59:44.238Z,98495.44
2019-01-29T21:02:10.435Z,98500.40
2019-01-29T21:04:36.714Z,98507.94
2019-01-29T21:07:03.300Z,98502.68
2019-01-29T21:09:29.602Z,98493.00
2019-01-29T21:11:55.906Z,98494.13
2019-01-29T21:14:22.166Z,98503.59
2019-01-29T21:16:48.462Z,98489.53
2019-01-29T21:19:14.649Z,98500.31
2019-01-29T21:21:41.121Z,98501.41
2019-01-29T21:24:07.418Z,98494.05
2019-01-29T21:26:34.685Z,98489.20
2019-01-29T21:29:03.189Z,98485.83
2019-01-29T21:31:29.062Z,98466.20
2019-01-29T21:33:56.098Z,98469.03
2019-01-29T21:36:22.257Z,98476.67
2019-01-29T21:38:50.005Z,98466.94
2019-01-29T21:41:16.160Z,98467.16
2019-01-29T21:43:42.439Z,98457.79
2019-01-29T21:46:08.654Z,98466.22
2019-01-29T21:48:34.913Z,98459.16
2019-01-29T21:51:01.070Z,98457.92
2019-01-29T21:53:27.281Z,98456.42
2019-01-29T21:55:53.562Z,98454.30
2019-01-29T21:58:19.828Z,98454.30
2019-01-29T22:00:46.045Z,98460.09
2019-01-29T22:03:12.515Z,98458.95
2019-01-29T22:05:38.785Z,98452.56
2019-01-29T22:08:06.275Z,98454.21
2019-01-29T22:10:32.540Z,98451.84
2019-01-29T22:12:59.137Z,98443.08
2019-01-29T22:15:25.438Z,98448.25
2019-01-29T22:17:51.608Z,98449.16
2019-01-29T22:20:19.575Z,98442.80
2019-01-29T22:22:45.769Z,98446.98
2019-01-29T22:25:16.804Z,98439.48
2019-01-29T22:27:42.961Z,98446.61
2019-01-29T22:30:21.575Z,98444.47
2019-01-29T22:32:47.746Z,98439.91
2019-01-29T22:35:13.934Z,98448.11
2019-01-29T22:37:40.123Z,98453.16
2019-01-29T22:40:12.954Z,98446.22
2019-01-29T22:42:39.117Z,98445.50
2019-01-29T22:45:09.017Z,98448.55
2019-01-29T22:47:35.282Z,98453.27
2019-01-29T22:50:01.549Z,98443.08
2019-01-29T22:52:27.859Z,98436.03
2019-01-29T22:54:53.998Z,98434.76
2019-01-29T22:57:20.251Z,98425.45
2019-01-29T22:59:46.462Z,98418.72
2019-01-29T23:02:12.726Z,98419.62
2019-01-29T23:04:38.993Z,98419.16
2019-01-29T23:07:05.282Z,98417.89
2019-01-29T23:09:31.565Z,98407.13
2019-01-29T23:11:57.830Z,98408.48
2019-01-29T23:14:24.154Z,98401.55
2019-01-29T23:16:50.316Z,98402.67
2019-01-29T23:19:16.578Z,98408.87
2019-01-29T23:21:42.780Z,98413.82
2019-01-29T23:24:09.040Z,98400.59
2019-01-29T23:26:35.202Z,98407.27
2019-01-29T23:29:01.491Z,98402.64
2019-01-29T23:31:27.639Z,98397.72
2019-01-29T23:33:53.915Z,98385.70
2019-01-29T23:36:20.114Z,98382.80
2019-01-29T23:38:47.542Z,98381.19
2019-01-29T23:41:14.677Z,98375.15
2019-01-29T23:43:40.877Z,98380.86
2019-01-29T23:46:07.132Z,98376.05
2019-01-29T23:48:33.292Z,98372.86
2019-01-29T23:50:59.488Z,98373.88
2019-01-29T23:53:25.750Z,98357.80
2019-01-29T23:55:51.905Z,98368.98
2019-01-29T23:58:18.090Z,98366.44
